Sensation — C6FM8 — position and weather

sailwx.info

Track history (hours):
 
Tides and Currents Weather Stations Pressure Air Temp Water Temp Dewpoint Dewpoint Depression Visibility Wind Speed Wind Dir Waves Ship Positions

Sensation

Last reported at 2018-Sep-24 21:30 UTC. Time now 2018-Sep-24 21:46 UTC.
Position N 25°43' W 079°56'.

Type: Ship. MMSI: 309697000.

Date/timePositionNaut miles runAvg speedWind from/ knotsBaromVisibWave heightAir tempDewpointWater temp
2018-Sep-24 21:30N 25°43' W 079°56'614.4
2018-Sep-24 21:03N 25°45' W 080°03'114.5
2018-Sep-24 21:00N 25°45' W 080°03'510.3
2018-Sep-24 20:30N 25°46' W 080°09'2 4.5
2018-Sep-24 20:03N 25°47' W 080°11'0 3.0
2018-Sep-24 20:00N 25°47' W 080°11'1 1.2
2018-Sep-24 19:30N 25°47' W 080°10'0 0.0
2018-Sep-24 19:03N 25°47' W 080°10'0 0.1
2018-Sep-24 19:00N 25°47' W 080°10'0 0.0
2018-Sep-24 18:27N 25°47' W 080°10'0 0.0
2018-Sep-24 17:57N 25°47' W 080°10'0 0.0
2018-Sep-24 17:27N 25°47' W 080°10'0 0.0
2018-Sep-24 17:00N 25°47' W 080°10'0 0.0
2018-Sep-24 16:30N 25°47' W 080°10'0 0.0
2018-Sep-24 16:00N 25°47' W 080°10'0 0.0
2018-Sep-24 15:30N 25°47' W 080°10'0 0.0
2018-Sep-24 15:00N 25°47' W 080°10'0 0.0
2018-Sep-24 14:30N 25°47' W 080°10'0 0.0
2018-Sep-24 14:00N 25°47' W 080°10'0 0.0
2018-Sep-24 13:30N 25°47' W 080°10'0 0.0
2018-Sep-24 13:03N 25°47' W 080°10'0 0.0
2018-Sep-24 13:00N 25°47' W 080°10'0 0.0
2018-Sep-24 12:18N 25°47' W 080°10'0 0.0
2018-Sep-24 12:03N 25°47' W 080°10'0 0.0
2018-Sep-24 12:00N 25°47' W 080°10'0 0.0
2018-Sep-24 11:30N 25°47' W 080°10'0 0.0
2018-Sep-24 11:04N 25°47' W 080°10'0 0.2
2018-Sep-24 11:00N 25°47' W 080°10'2 4.1
2018-Sep-24 10:31N 25°46' W 080°08'510.1
2018-Sep-24 10:04N 25°47' W 080°03'0 7.8
2018-Sep-24 10:01N 25°47' W 080°03'4 7.9
2018-Sep-24 09:30N 25°46' W 079°58'3 7.5
2018-Sep-24 09:04N 25°46' W 079°55'0 7.7
2018-Sep-24 09:01N 25°46' W 079°54'5 9.4
2018-Sep-24 08:29N 25°46' W 079°49'4 9.3
2018-Sep-24 08:03N 25°46' W 079°44'111.2
2018-Sep-24 08:01N 25°46' W 079°44'510.0
2018-Sep-24 07:30N 25°50' W 079°40'512.0
2018-Sep-24 07:03N 25°55' W 079°37'113.7
2018-Sep-24 07:01N 25°55' W 079°36'1114.0
2018-Sep-24 06:13N 26°04' W 079°29'214.4
2018-Sep-24 06:03N 26°06' W 079°28'114.4
2018-Sep-24 06:01N 26°07' W 079°27'3169.3
2018-Sep-24 06:00N 26°06' W 079°24'612.9 080 / 151014.710.8 29.024.928.0
2018-Sep-24 05:30N 26°12' W 079°21'715.1
2018-Sep-24 05:03N 26°14' W 079°14'116.6
2018-Sep-24 05:00N 26°14' W 079°13'11015.7
2018-Sep-23 22:00N 25°24' W 077°24'11 0.8 010 / 91013.3 29.022.028.6
2018-Sep-23 09:00N 25°24' W 077°12'5010.0 080 / 101013.410.8 27.021.328.0
2018-Sep-23 04:00N 25°36' W 076°18'45 9.0 050 / 81015.410.8 28.022.428.0
2018-Sep-22 23:00N 25°00' W 075°48'19 1.4 360 / 91013.9 28.019.328.0
2018-Sep-22 10:00N 24°42' W 075°54'4310.8 090 / 131014.9 27.016.428.1
2018-Sep-22 06:00N 25°24' W 075°42'3210.8 060 / 141015.910.8 29.024.928.0
2018-Sep-22 03:00N 25°48' W 076°06'64 7.1 070 / 101017.010.8 28.022.428.0
2018-Sep-21 18:00N 25°24' W 077°12'53 6.6 080 / 91016.527.0 29.024.928.0
2018-Sep-21 10:00N 26°06' W 077°48'25 8.2 050 / 131016.210.8 27.021.328.4
2018-Sep-21 07:00N 26°18' W 078°12'5413.5 040 / 71016.110.8 29.024.928.0
2018-Sep-21 03:00N 26°24' W 079°12'10 7.9 050 / 181017.610.8 28.022.428.0
2018-Sep-21 01:41N 26°22' W 079°23'213.9
2018-Sep-21 01:30N 26°19' W 079°24'614.1
2018-Sep-21 01:03N 26°14' W 079°28'112.4
2018-Sep-21 01:00N 26°13' W 079°28'713.0
2018-Sep-21 00:30N 26°07' W 079°30'614.1
2018-Sep-21 00:03N 26°02' W 079°34'114.3
2018-Sep-21 00:00N 26°01' W 079°34'714.7
2018-Sep-20 23:30N 25°55' W 079°38'715.0
2018-Sep-20 23:03N 25°49' W 079°42'115.2
2018-Sep-20 23:00N 25°48' W 079°42'611.2
2018-Sep-20 22:30N 25°46' W 079°48'511.1
2018-Sep-20 22:04N 25°46' W 079°54'111.3
2018-Sep-20 22:00N 25°46' W 079°55'611.1
2018-Sep-20 21:30N 25°46' W 080°01'510.8
2018-Sep-20 21:03N 25°46' W 080°06'112.6
2018-Sep-20 21:00N 25°45' W 080°07'4 7.4
2018-Sep-20 20:31N 25°47' W 080°11'0 1.0
2018-Sep-20 20:02N 25°47' W 080°10'0 0.2
2018-Sep-20 20:00N 25°47' W 080°10'0 0.0
2018-Sep-20 19:30N 25°47' W 080°10'0 0.0
2018-Sep-20 19:00N 25°47' W 080°10'0 0.0
2018-Sep-20 18:30N 25°47' W 080°10'0 0.0
2018-Sep-20 18:03N 25°47' W 080°10'0 0.0
2018-Sep-20 18:00N 25°47' W 080°10'0 0.0
2018-Sep-20 17:30N 25°47' W 080°10'0 0.0
2018-Sep-20 17:03N 25°47' W 080°10'0 0.0
2018-Sep-20 17:00N 25°47' W 080°10'0 0.0
2018-Sep-20 16:30N 25°47' W 080°10'0 0.0
2018-Sep-20 16:03N 25°47' W 080°10'0 0.0
2018-Sep-20 16:00N 25°47' W 080°10'0 0.0
2018-Sep-20 15:30N 25°47' W 080°10'0 0.0
2018-Sep-20 15:03N 25°47' W 080°10'0 0.0
2018-Sep-20 15:00N 25°47' W 080°10'0 0.0
2018-Sep-20 14:30N 25°47' W 080°10'0 0.0
2018-Sep-20 14:00N 25°47' W 080°10'0 0.0
2018-Sep-20 13:30N 25°47' W 080°10'0 0.0
2018-Sep-20 13:03N 25°47' W 080°10'0 0.0
2018-Sep-20 13:00N 25°47' W 080°10'0 0.0
2018-Sep-20 12:24N 25°47' W 080°10'0 0.0
2018-Sep-20 12:03N 25°47' W 080°10'0 0.0
2018-Sep-20 12:00N 25°47' W 080°10'0 0.0
2018-Sep-20 11:24N 25°47' W 080°10'0 0.0
2018-Sep-20 10:57N 25°47' W 080°10'0 0.0
2018-Sep-20 10:30N 25°47' W 080°10'1 2.5
2018-Sep-20 10:03N 25°46' W 080°09'0 5.5
2018-Sep-20 10:00N 25°46' W 080°09'612.0
2018-Sep-20 09:30N 25°47' W 080°02'613.3
2018-Sep-20 09:03N 25°49' W 079°56'111.7
2018-Sep-20 09:01N 25°49' W 079°55'815.0
2018-Sep-20 08:30N 25°51' W 079°47'715.9
2018-Sep-20 08:03N 25°55' W 079°40'115.6
2018-Sep-20 08:00N 25°55' W 079°40'815.7
2018-Sep-20 07:30N 26°01' W 079°34'716.2
2018-Sep-20 07:03N 26°06' W 079°28'116.4
2018-Sep-20 07:00N 26°07' W 079°27'816.6
2018-Sep-20 06:30N 26°13' W 079°21'817.7
2018-Sep-20 06:03N 26°13' W 079°12'1816.6
2018-Sep-20 05:00N 26°06' W 078°54'3332.9 170 / 111016.210.8 29.024.928.0
2018-Sep-20 04:00N 26°00' W 078°18'14914.9 160 / 101016.5 29.023.528.9
2018-Sep-19 18:00N 25°12' W 075°42'15517.2 180 / 101015.210.8 29.024.928.0
2018-Sep-19 09:00N 23°42' W 073°24'4916.3 190 / 111013.710.8 27.021.328.0
2018-Sep-19 06:00N 23°06' W 072°48'4514.9 190 / 101014.310.8 29.025.028.0
2018-Sep-19 03:00N 22°36' W 072°12'45 2.1 140 / 81015.4 29.023.528.0
2018-Sep-18 06:00N 22°42' W 073°00'4622.9 040 / 201013.510.8 30.024.628.1
2018-Sep-18 04:00N 22°54' W 073°48'15011.5 050 / 161014.6 5.4 29.023.528.0
2018-Sep-17 15:00N 24°30' W 075°54'60 6.7 030 / 101015.110.8 30.021.628.0
2018-Sep-17 06:00N 25°30' W 076°00'2211.2 050 / 181014.410.8 28.222.6
2018-Sep-17 04:00N 25°36' W 076°24'61 4.7 050 / 191015.110.8 29.022.028.0
2018-Sep-16 15:00N 25°00' W 077°18'55 6.1 070 / 101014.110.8 29.022.028.0
2018-Sep-16 06:00N 25°48' W 077°48'7214.0 070 / 131012.110.8 30.024.628.7
2018-Sep-16 00:51N 26°12' W 079°03'515.4
2018-Sep-16 00:30N 26°13' W 079°09'715.5
2018-Sep-16 00:03N 26°13' W 079°17'215.8
2018-Sep-15 23:55N 26°13' W 079°19'716.9
2018-Sep-15 23:30N 26°08' W 079°25'817.2
2018-Sep-15 23:03N 26°02' W 079°31'116.9
2018-Sep-15 23:00N 26°02' W 079°32'816.9
2018-Sep-15 22:30N 25°56' W 079°39'716.6
2018-Sep-15 22:04N 25°53' W 079°46'116.4
2018-Sep-15 22:00N 25°52' W 079°47'815.8
2018-Sep-15 21:31N 25°49' W 079°55'715.4
2018-Sep-15 21:03N 25°47' W 080°02'114.1
2018-Sep-15 21:00N 25°47' W 080°03'510.8
2018-Sep-15 20:30N 25°46' W 080°09'2 4.7
2018-Sep-15 20:03N 25°47' W 080°11'0 1.3
2018-Sep-15 20:00N 25°47' W 080°11'1 1.4
2018-Sep-15 19:26N 25°47' W 080°10'0 0.0
2018-Sep-15 19:02N 25°47' W 080°10'0 0.0
2018-Sep-15 18:56N 25°47' W 080°10'0 0.0
2018-Sep-15 18:26N 25°47' W 080°10'0 0.0
2018-Sep-15 17:59N 25°47' W 080°10'0 0.0
2018-Sep-15 17:29N 25°47' W 080°10'0 0.0
2018-Sep-15 17:02N 25°47' W 080°10'0 0.0
2018-Sep-15 16:59N 25°47' W 080°10'0 0.0
2018-Sep-15 16:29N 25°47' W 080°10'0 0.0
2018-Sep-15 16:02N 25°47' W 080°10'0 0.0
2018-Sep-15 15:59N 25°47' W 080°10'0 0.0
2018-Sep-15 15:29N 25°47' W 080°10'0 0.0
2018-Sep-15 14:59N 25°47' W 080°10'0 0.0
2018-Sep-15 14:29N 25°47' W 080°10'0 0.0
2018-Sep-15 13:59N 25°47' W 080°10'0 0.0
2018-Sep-15 13:29N 25°47' W 080°10'0 0.0
2018-Sep-15 13:02N 25°47' W 080°10'0 0.0
2018-Sep-15 12:59N 25°47' W 080°10'0 0.0
2018-Sep-15 12:29N 25°47' W 080°10'0 0.0
2018-Sep-15 12:02N 25°47' W 080°10'0 0.0
2018-Sep-15 11:59N 25°47' W 080°10'0 0.0
2018-Sep-15 11:29N 25°47' W 080°10'0 0.0
2018-Sep-15 11:02N 25°47' W 080°10'0 0.0
2018-Sep-15 10:59N 25°47' W 080°10'0 0.0
2018-Sep-15 10:30N 25°47' W 080°10'1 3.3
2018-Sep-15 10:03N 25°46' W 080°09'0 7.2
2018-Sep-15 10:00N 25°46' W 080°08'612.1
2018-Sep-15 09:31N 25°46' W 080°02'4 8.3
2018-Sep-15 09:03N 25°43' W 079°59'0 9.3
2018-Sep-15 09:00N 25°43' W 079°59'510.8
2018-Sep-15 08:30N 25°38' W 079°57'511.9
2018-Sep-15 08:03N 25°32' W 079°56'113.9
2018-Sep-15 08:00N 25°32' W 079°56'713.7
2018-Sep-15 07:30N 25°25' W 079°56'614.2
2018-Sep-15 07:03N 25°18' W 079°57'117.0
2018-Sep-15 07:00N 25°18' W 079°57'  
Track history (hours):
 
Tides and Currents Weather Stations Pressure Air Temp Water Temp Dewpoint Dewpoint Depression Visibility Wind Speed Wind Dir Waves Ship Positions

Sensation

Last reported at 2018-Sep-24 21:30 UTC. Time now 2018-Sep-24 21:46 UTC.
Position N 25°43' W 079°56'.

Type: Ship. MMSI: 309697000.

Date/timePositionNaut miles runAvg speedWind from/ knotsBaromVisibWave heightAir tempDewpointWater temp
2018-Sep-24 21:30N 25°43' W 079°56'614.4
2018-Sep-24 21:03N 25°45' W 080°03'114.5
2018-Sep-24 21:00N 25°45' W 080°03'510.3
2018-Sep-24 20:30N 25°46' W 080°09'2 4.5
2018-Sep-24 20:03N 25°47' W 080°11'0 3.0
2018-Sep-24 20:00N 25°47' W 080°11'1 1.2
2018-Sep-24 19:30N 25°47' W 080°10'0 0.0
2018-Sep-24 19:03N 25°47' W 080°10'0 0.1
2018-Sep-24 19:00N 25°47' W 080°10'0 0.0
2018-Sep-24 18:27N 25°47' W 080°10'0 0.0
2018-Sep-24 17:57N 25°47' W 080°10'0 0.0
2018-Sep-24 17:27N 25°47' W 080°10'0 0.0
2018-Sep-24 17:00N 25°47' W 080°10'0 0.0
2018-Sep-24 16:30N 25°47' W 080°10'0 0.0
2018-Sep-24 16:00N 25°47' W 080°10'0 0.0
2018-Sep-24 15:30N 25°47' W 080°10'0 0.0
2018-Sep-24 15:00N 25°47' W 080°10'0 0.0
2018-Sep-24 14:30N 25°47' W 080°10'0 0.0
2018-Sep-24 14:00N 25°47' W 080°10'0 0.0
2018-Sep-24 13:30N 25°47' W 080°10'0 0.0
2018-Sep-24 13:03N 25°47' W 080°10'0 0.0
2018-Sep-24 13:00N 25°47' W 080°10'0 0.0
2018-Sep-24 12:18N 25°47' W 080°10'0 0.0
2018-Sep-24 12:03N 25°47' W 080°10'0 0.0
2018-Sep-24 12:00N 25°47' W 080°10'0 0.0
2018-Sep-24 11:30N 25°47' W 080°10'0 0.0
2018-Sep-24 11:04N 25°47' W 080°10'0 0.2
2018-Sep-24 11:00N 25°47' W 080°10'2 4.1
2018-Sep-24 10:31N 25°46' W 080°08'510.1
2018-Sep-24 10:04N 25°47' W 080°03'0 7.8
2018-Sep-24 10:01N 25°47' W 080°03'4 7.9
2018-Sep-24 09:30N 25°46' W 079°58'3 7.5
2018-Sep-24 09:04N 25°46' W 079°55'0 7.7
2018-Sep-24 09:01N 25°46' W 079°54'5 9.4
2018-Sep-24 08:29N 25°46' W 079°49'4 9.3
2018-Sep-24 08:03N 25°46' W 079°44'111.2
2018-Sep-24 08:01N 25°46' W 079°44'510.0
2018-Sep-24 07:30N 25°50' W 079°40'512.0
2018-Sep-24 07:03N 25°55' W 079°37'113.7
2018-Sep-24 07:01N 25°55' W 079°36'1114.0
2018-Sep-24 06:13N 26°04' W 079°29'214.4
2018-Sep-24 06:03N 26°06' W 079°28'114.4
2018-Sep-24 06:01N 26°07' W 079°27'3169.3
2018-Sep-24 06:00N 26°06' W 079°24'612.9 080 / 151014.710.8 29.024.928.0
2018-Sep-24 05:30N 26°12' W 079°21'715.1
2018-Sep-24 05:03N 26°14' W 079°14'116.6
2018-Sep-24 05:00N 26°14' W 079°13'11015.7
2018-Sep-23 22:00N 25°24' W 077°24'11 0.8 010 / 91013.3 29.022.028.6
2018-Sep-23 09:00N 25°24' W 077°12'5010.0 080 / 101013.410.8 27.021.328.0
2018-Sep-23 04:00N 25°36' W 076°18'45 9.0 050 / 81015.410.8 28.022.428.0
2018-Sep-22 23:00N 25°00' W 075°48'19 1.4 360 / 91013.9 28.019.328.0
2018-Sep-22 10:00N 24°42' W 075°54'4310.8 090 / 131014.9 27.016.428.1
2018-Sep-22 06:00N 25°24' W 075°42'3210.8 060 / 141015.910.8 29.024.928.0
2018-Sep-22 03:00N 25°48' W 076°06'64 7.1 070 / 101017.010.8 28.022.428.0
2018-Sep-21 18:00N 25°24' W 077°12'53 6.6 080 / 91016.527.0 29.024.928.0
2018-Sep-21 10:00N 26°06' W 077°48'25 8.2 050 / 131016.210.8 27.021.328.4
2018-Sep-21 07:00N 26°18' W 078°12'5413.5 040 / 71016.110.8 29.024.928.0
2018-Sep-21 03:00N 26°24' W 079°12'10 7.9 050 / 181017.610.8 28.022.428.0
2018-Sep-21 01:41N 26°22' W 079°23'213.9
2018-Sep-21 01:30N 26°19' W 079°24'614.1
2018-Sep-21 01:03N 26°14' W 079°28'112.4
2018-Sep-21 01:00N 26°13' W 079°28'713.0
2018-Sep-21 00:30N 26°07' W 079°30'614.1
2018-Sep-21 00:03N 26°02' W 079°34'114.3
2018-Sep-21 00:00N 26°01' W 079°34'714.7
2018-Sep-20 23:30N 25°55' W 079°38'715.0
2018-Sep-20 23:03N 25°49' W 079°42'115.2
2018-Sep-20 23:00N 25°48' W 079°42'611.2
2018-Sep-20 22:30N 25°46' W 079°48'511.1
2018-Sep-20 22:04N 25°46' W 079°54'111.3
2018-Sep-20 22:00N 25°46' W 079°55'611.1
2018-Sep-20 21:30N 25°46' W 080°01'510.8
2018-Sep-20 21:03N 25°46' W 080°06'112.6
2018-Sep-20 21:00N 25°45' W 080°07'4 7.4
2018-Sep-20 20:31N 25°47' W 080°11'0 1.0
2018-Sep-20 20:02N 25°47' W 080°10'0 0.2
2018-Sep-20 20:00N 25°47' W 080°10'0 0.0
2018-Sep-20 19:30N 25°47' W 080°10'0 0.0
2018-Sep-20 19:00N 25°47' W 080°10'0 0.0
2018-Sep-20 18:30N 25°47' W 080°10'0 0.0
2018-Sep-20 18:03N 25°47' W 080°10'0 0.0
2018-Sep-20 18:00N 25°47' W 080°10'0 0.0
2018-Sep-20 17:30N 25°47' W 080°10'0 0.0
2018-Sep-20 17:03N 25°47' W 080°10'0 0.0
2018-Sep-20 17:00N 25°47' W 080°10'0 0.0
2018-Sep-20 16:30N 25°47' W 080°10'0 0.0
2018-Sep-20 16:03N 25°47' W 080°10'0 0.0
2018-Sep-20 16:00N 25°47' W 080°10'0 0.0
2018-Sep-20 15:30N 25°47' W 080°10'0 0.0
2018-Sep-20 15:03N 25°47' W 080°10'0 0.0
2018-Sep-20 15:00N 25°47' W 080°10'0 0.0
2018-Sep-20 14:30N 25°47' W 080°10'0 0.0
2018-Sep-20 14:00N 25°47' W 080°10'0 0.0
2018-Sep-20 13:30N 25°47' W 080°10'0 0.0
2018-Sep-20 13:03N 25°47' W 080°10'0 0.0
2018-Sep-20 13:00N 25°47' W 080°10'0 0.0
2018-Sep-20 12:24N 25°47' W 080°10'0 0.0
2018-Sep-20 12:03N 25°47' W 080°10'0 0.0
2018-Sep-20 12:00N 25°47' W 080°10'0 0.0
2018-Sep-20 11:24N 25°47' W 080°10'0 0.0
2018-Sep-20 10:57N 25°47' W 080°10'0 0.0
2018-Sep-20 10:30N 25°47' W 080°10'1 2.5
2018-Sep-20 10:03N 25°46' W 080°09'0 5.5
2018-Sep-20 10:00N 25°46' W 080°09'612.0
2018-Sep-20 09:30N 25°47' W 080°02'613.3
2018-Sep-20 09:03N 25°49' W 079°56'111.7
2018-Sep-20 09:01N 25°49' W 079°55'815.0
2018-Sep-20 08:30N 25°51' W 079°47'715.9
2018-Sep-20 08:03N 25°55' W 079°40'115.6
2018-Sep-20 08:00N 25°55' W 079°40'815.7
2018-Sep-20 07:30N 26°01' W 079°34'716.2
2018-Sep-20 07:03N 26°06' W 079°28'116.4
2018-Sep-20 07:00N 26°07' W 079°27'816.6
2018-Sep-20 06:30N 26°13' W 079°21'817.7
2018-Sep-20 06:03N 26°13' W 079°12'1816.6
2018-Sep-20 05:00N 26°06' W 078°54'3332.9 170 / 111016.210.8 29.024.928.0
2018-Sep-20 04:00N 26°00' W 078°18'14914.9 160 / 101016.5 29.023.528.9
2018-Sep-19 18:00N 25°12' W 075°42'15517.2 180 / 101015.210.8 29.024.928.0
2018-Sep-19 09:00N 23°42' W 073°24'4916.3 190 / 111013.710.8 27.021.328.0
2018-Sep-19 06:00N 23°06' W 072°48'4514.9 190 / 101014.310.8 29.025.028.0
2018-Sep-19 03:00N 22°36' W 072°12'45 2.1 140 / 81015.4 29.023.528.0
2018-Sep-18 06:00N 22°42' W 073°00'4622.9 040 / 201013.510.8 30.024.628.1
2018-Sep-18 04:00N 22°54' W 073°48'15011.5 050 / 161014.6 5.4 29.023.528.0
2018-Sep-17 15:00N 24°30' W 075°54'60 6.7 030 / 101015.110.8 30.021.628.0
2018-Sep-17 06:00N 25°30' W 076°00'2211.2 050 / 181014.410.8 28.222.6
2018-Sep-17 04:00N 25°36' W 076°24'61 4.7 050 / 191015.110.8 29.022.028.0
2018-Sep-16 15:00N 25°00' W 077°18'55 6.1 070 / 101014.110.8 29.022.028.0
2018-Sep-16 06:00N 25°48' W 077°48'7214.0 070 / 131012.110.8 30.024.628.7
2018-Sep-16 00:51N 26°12' W 079°03'515.4
2018-Sep-16 00:30N 26°13' W 079°09'715.5
2018-Sep-16 00:03N 26°13' W 079°17'215.8
2018-Sep-15 23:55N 26°13' W 079°19'716.9
2018-Sep-15 23:30N 26°08' W 079°25'817.2
2018-Sep-15 23:03N 26°02' W 079°31'116.9
2018-Sep-15 23:00N 26°02' W 079°32'816.9
2018-Sep-15 22:30N 25°56' W 079°39'716.6
2018-Sep-15 22:04N 25°53' W 079°46'116.4
2018-Sep-15 22:00N 25°52' W 079°47'815.8
2018-Sep-15 21:31N 25°49' W 079°55'715.4
2018-Sep-15 21:03N 25°47' W 080°02'114.1
2018-Sep-15 21:00N 25°47' W 080°03'510.8
2018-Sep-15 20:30N 25°46' W 080°09'2 4.7
2018-Sep-15 20:03N 25°47' W 080°11'0 1.3
2018-Sep-15 20:00N 25°47' W 080°11'1 1.4
2018-Sep-15 19:26N 25°47' W 080°10'0 0.0
2018-Sep-15 19:02N 25°47' W 080°10'0 0.0
2018-Sep-15 18:56N 25°47' W 080°10'0 0.0
2018-Sep-15 18:26N 25°47' W 080°10'0 0.0
2018-Sep-15 17:59N 25°47' W 080°10'0 0.0
2018-Sep-15 17:29N 25°47' W 080°10'0 0.0
2018-Sep-15 17:02N 25°47' W 080°10'0 0.0
2018-Sep-15 16:59N 25°47' W 080°10'0 0.0
2018-Sep-15 16:29N 25°47' W 080°10'0 0.0
2018-Sep-15 16:02N 25°47' W 080°10'0 0.0
2018-Sep-15 15:59N 25°47' W 080°10'0 0.0
2018-Sep-15 15:29N 25°47' W 080°10'0 0.0
2018-Sep-15 14:59N 25°47' W 080°10'0 0.0
2018-Sep-15 14:29N 25°47' W 080°10'0 0.0
2018-Sep-15 13:59N 25°47' W 080°10'0 0.0
2018-Sep-15 13:29N 25°47' W 080°10'0 0.0
2018-Sep-15 13:02N 25°47' W 080°10'0 0.0
2018-Sep-15 12:59N 25°47' W 080°10'0 0.0
2018-Sep-15 12:29N 25°47' W 080°10'0 0.0
2018-Sep-15 12:02N 25°47' W 080°10'0 0.0
2018-Sep-15 11:59N 25°47' W 080°10'0 0.0
2018-Sep-15 11:29N 25°47' W 080°10'0 0.0
2018-Sep-15 11:02N 25°47' W 080°10'0 0.0
2018-Sep-15 10:59N 25°47' W 080°10'0 0.0
2018-Sep-15 10:30N 25°47' W 080°10'1 3.3
2018-Sep-15 10:03N 25°46' W 080°09'0 7.2
2018-Sep-15 10:00N 25°46' W 080°08'612.1
2018-Sep-15 09:31N 25°46' W 080°02'4 8.3
2018-Sep-15 09:03N 25°43' W 079°59'0 9.3
2018-Sep-15 09:00N 25°43' W 079°59'510.8
2018-Sep-15 08:30N 25°38' W 079°57'511.9
2018-Sep-15 08:03N 25°32' W 079°56'113.9
2018-Sep-15 08:00N 25°32' W 079°56'713.7
2018-Sep-15 07:30N 25°25' W 079°56'614.2
2018-Sep-15 07:03N 25°18' W 079°57'117.0
2018-Sep-15 07:00N 25°18' W 079°57'  

Dump ship's entire track history